Time;durP1;ratioP1;P1;durP2;ratioP2;P2;SDS_P1;SDS_P2;PMS_P1;PMS_P2;Temp;Humidity;BMP_temperature;BMP_pressure;BME280_temperature;BME280_humidity;BME280_pressure;Samples;Min_cycle;Max_cycle;Signal;HPM_P1;HPM_P2
2021/12/31 00:00:27;;;;;;;;;;;;;;;19.15;59.33;101727.81;4969924;28;20326;-90
2021/12/31 00:02:52;;;;;;;;;;;;;;;19.27;58.59;101732.41;4970223;28;19923;-91
2021/12/31 00:05:17;;;;;;;;;;;;;;;19.05;59.50;101736.69;4970696;28;19928;-91
2021/12/31 00:07:45;;;;;;;;;;;;;;;19.58;57.92;101732.97;4970824;28;19902;-90
2021/12/31 00:10:10;;;;;;;;;;;;;;;19.04;61.23;101736.78;4969108;28;19925;-90
2021/12/31 00:12:35;;;;;;;;;;;;;;;19.81;57.69;101732.22;4968827;28;19925;-90
2021/12/31 00:15:01;;;;;;;;;;;;;;;19.10;59.63;101726.25;4971075;28;19918;-90
2021/12/31 00:17:26;;;;;;;;;;;;;;;19.00;60.71;101722.38;4978143;28;19925;-89
2021/12/31 00:20:01;;;;;;;;;;;;;;;19.72;58.04;101732.88;4975987;28;19937;-89
2021/12/31 00:24:52;;;;;;;;;;;;;;;19.55;58.87;101725.84;4988901;28;19914;-90
2021/12/31 00:27:17;;;;;;;;;;;;;;;18.62;62.36;101725.00;4975429;28;19922;-89
2021/12/31 00:29:43;;;;;;;;;;;;;;;19.55;59.41;101722.22;4972043;28;19922;-91
2021/12/31 00:32:08;;;;;;;;;;;;;;;19.23;59.94;101714.41;4969270;28;19918;-90
2021/12/31 00:34:33;;;;;;;;;;;;;;;19.57;58.90;101720.25;4969641;28;20368;-91
2021/12/31 00:36:59;;;;;;;;;;;;;;;19.24;59.88;101719.78;4969298;28;19918;-91
2021/12/31 00:39:24;;;;;;;;;;;;;;;18.38;63.73;101720.16;4969248;28;19953;-90
2021/12/31 00:41:49;;;;;;;;;;;;;;;18.99;61.11;101723.34;4969793;28;19919;-90
2021/12/31 00:44:15;;;;;;;;;;;;;;;19.06;60.31;101727.44;4972147;28;19910;-91
2021/12/31 00:46:40;;;;;;;;;;;;;;;18.91;61.65;101720.28;4970197;28;19918;-90
2021/12/31 00:49:06;;;;;;;;;;;;;;;19.80;58.49;101724.09;4968648;28;19973;-90
2021/12/31 00:51:32;;;;;;;;;;;;;;;20.09;57.09;101721.09;4969262;28;19902;-91
2021/12/31 00:53:57;;;;;;;;;;;;;;;19.99;57.59;101723.66;4968858;28;19961;-91
2021/12/31 00:56:22;;;;;;;;;;;;;;;19.14;59.66;101726.91;4968365;28;20001;-90
2021/12/31 00:58:48;;;;;;;;;;;;;;;20.24;56.73;101721.81;4968950;28;20423;-90
2021/12/31 01:01:18;;;;;;;;;;;;;;;19.97;57.49;101722.88;4967697;28;19925;-90
2021/12/31 01:03:43;;;;;;;;;;;;;;;19.35;61.03;101724.50;4968611;28;19990;-90
2021/12/31 01:06:08;;;;;;;;;;;;;;;18.72;62.48;101720.63;4968769;28;19918;-90
2021/12/31 01:08:34;;;;;;;;;;;;;;;18.84;61.57;101729.88;4968534;28;20009;-91
2021/12/31 01:10:59;;;;;;;;;;;;;;;19.77;58.67;101733.44;4968209;28;19964;-91
2021/12/31 01:13:33;;;;;;;;;;;;;;;19.64;59.19;101736.19;4968126;28;19958;-91
2021/12/31 01:16:01;;;;;;;;;;;;;;;18.97;61.21;101729.97;4968880;28;19969;-90
2021/12/31 01:19:44;;;;;;;;;;;;;;;19.17;61.20;101734.03;4969397;28;19906;-89
2021/12/31 01:21:12;;;;;;;;;;;;;;;19.80;59.18;101729.59;4985649;28;19914;-90
2021/12/31 01:23:37;;;;;;;;;;;;;;;19.07;61.98;101742.06;4969107;28;19930;-91
2021/12/31 01:26:02;;;;;;;;;;;;;;;19.64;59.11;101740.75;4969004;28;20368;-90
2021/12/31 01:28:27;;;;;;;;;;;;;;;19.26;60.89;101738.88;4968654;28;19922;-90
2021/12/31 01:30:52;;;;;;;;;;;;;;;18.53;61.86;101723.75;4969153;28;19950;-89
2021/12/31 01:33:18;;;;;;;;;;;;;;;19.37;59.62;101739.03;4970816;28;19918;-89
2021/12/31 01:35:43;;;;;;;;;;;;;;;18.97;61.60;101747.28;4969729;28;19922;-90
2021/12/31 01:38:08;;;;;;;;;;;;;;;19.65;59.03;101742.53;4970631;28;19948;-90
2021/12/31 01:40:34;;;;;;;;;;;;;;;20.37;56.56;101750.16;4970882;28;19924;-90
2021/12/31 01:42:59;;;;;;;;;;;;;;;19.10;60.19;101747.31;4969406;28;19926;-89
2021/12/31 01:45:28;;;;;;;;;;;;;;;19.30;59.89;101748.66;4968147;28;19918;-91
2021/12/31 01:50:19;;;;;;;;;;;;;;;19.56;58.67;101749.56;4985120;28;19918;-90
2021/12/31 01:52:44;;;;;;;;;;;;;;;19.82;58.04;101744.97;4968300;28;20360;-91
2021/12/31 01:55:11;;;;;;;;;;;;;;;19.37;59.32;101736.28;4968891;28;19965;-91
2021/12/31 01:57:38;;;;;;;;;;;;;;;19.78;58.13;101729.72;4969193;28;19917;-91
2021/12/31 02:00:04;;;;;;;;;;;;;;;19.39;58.75;101737.03;4974970;28;19953;-91
2021/12/31 02:02:29;;;;;;;;;;;;;;;19.75;57.81;101734.53;4974888;28;19933;-90
2021/12/31 02:04:54;;;;;;;;;;;;;;;20.39;56.10;101731.66;4973961;28;19918;-89
2021/12/31 02:07:20;;;;;;;;;;;;;;;20.09;56.12;101729.34;4974160;28;19918;-90
2021/12/31 02:09:49;;;;;;;;;;;;;;;20.13;56.04;101722.63;4973843;28;19933;-90
2021/12/31 02:12:16;;;;;;;;;;;;;;;20.04;56.65;101721.44;4976573;28;19953;-90
2021/12/31 02:14:42;;;;;;;;;;;;;;;19.60;57.80;101726.41;4975070;28;19933;-91
2021/12/31 02:17:09;;;;;;;;;;;;;;;20.10;55.78;101725.59;4969512;28;19925;-91
2021/12/31 02:19:35;;;;;;;;;;;;;;;19.43;58.47;101729.44;4968453;28;19918;-91
2021/12/31 02:22:00;;;;;;;;;;;;;;;20.00;56.82;101722.63;4968256;28;19973;-91
2021/12/31 02:24:26;;;;;;;;;;;;;;;19.63;57.77;101739.03;4967572;28;19919;-90
2021/12/31 02:26:51;;;;;;;;;;;;;;;20.14;55.11;101728.00;4967472;28;19918;-92
2021/12/31 02:29:17;;;;;;;;;;;;;;;20.16;55.69;101725.16;4967873;28;19922;-91
2021/12/31 02:31:43;;;;;;;;;;;;;;;18.94;60.19;101737.38;4967824;28;19924;-89
2021/12/31 02:34:08;;;;;;;;;;;;;;;19.70;57.20;101734.88;4967666;28;19961;-91
2021/12/31 02:36:34;;;;;;;;;;;;;;;19.39;59.31;101737.03;4967765;28;19946;-91
2021/12/31 02:38:59;;;;;;;;;;;;;;;19.79;57.49;101725.09;4967798;28;19922;-91
2021/12/31 02:41:24;;;;;;;;;;;;;;;19.82;56.93;101728.50;4966512;28;19914;-91
2021/12/31 02:43:49;;;;;;;;;;;;;;;19.04;59.88;101723.06;4967186;28;19969;-91
2021/12/31 02:46:15;;;;;;;;;;;;;;;19.55;57.82;101730.44;4967324;28;19918;-91
2021/12/31 02:48:40;;;;;;;;;;;;;;;19.62;57.13;101742.75;4966499;28;19969;-90
2021/12/31 02:51:08;;;;;;;;;;;;;;;21.33;51.82;101732.72;4967046;28;19922;-91
2021/12/31 02:53:38;;;;;;;;;;;;;;;19.47;57.65;101731.00;4967048;28;19945;-91
2021/12/31 02:56:07;;;;;;;;;;;;;;;20.86;53.54;101731.81;4966480;28;19925;-91
2021/12/31 02:58:33;;;;;;;;;;;;;;;20.37;54.19;101733.66;4966386;28;19918;-92
2021/12/31 03:00:58;;;;;;;;;;;;;;;20.44;54.07;101736.81;4966008;28;19925;-90
2021/12/31 03:03:24;;;;;;;;;;;;;;;19.42;57.48;101725.84;4967558;28;19957;-91
2021/12/31 03:05:53;;;;;;;;;;;;;;;19.26;58.65;101730.66;4967524;28;19946;-91
2021/12/31 03:08:20;;;;;;;;;;;;;;;19.64;57.38;101735.28;4967000;28;19918;-91
2021/12/31 03:10:46;;;;;;;;;;;;;;;19.83;56.78;101730.25;4973986;28;19925;-90
2021/12/31 03:13:13;;;;;;;;;;;;;;;19.32;57.69;101719.25;4977741;28;19959;-89
2021/12/31 03:15:39;;;;;;;;;;;;;;;20.13;55.99;101714.38;4970075;28;19946;-91
2021/12/31 03:18:06;;;;;;;;;;;;;;;20.03;55.84;101705.06;4968232;28;19941;-91
2021/12/31 03:20:40;;;;;;;;;;;;;;;20.56;54.80;101702.00;4967563;28;19923;-91
2021/12/31 03:23:06;;;;;;;;;;;;;;;19.50;56.66;101699.72;4967280;28;19918;-91
2021/12/31 03:25:32;;;;;;;;;;;;;;;19.93;55.96;101696.59;4969828;28;19925;-91
2021/12/31 03:27:57;;;;;;;;;;;;;;;19.97;55.78;101700.91;4970204;28;19926;-92
2021/12/31 03:30:22;;;;;;;;;;;;;;;19.60;56.75;101698.06;4970364;28;20018;-90
2021/12/31 03:32:47;;;;;;;;;;;;;;;19.88;55.77;101707.06;4970640;28;19902;-91
2021/12/31 03:35:13;;;;;;;;;;;;;;;19.87;55.95;101703.47;4968918;28;19929;-91
2021/12/31 03:37:38;;;;;;;;;;;;;;;19.93;54.90;101703.00;4969094;28;19926;-91
2021/12/31 03:40:04;;;;;;;;;;;;;;;20.07;55.12;101703.84;4969449;28;19914;-91
2021/12/31 03:42:31;;;;;;;;;;;;;;;19.80;55.62;101704.88;4969894;28;19918;-91
2021/12/31 03:44:56;;;;;;;;;;;;;;;18.76;59.25;101720.31;4969922;28;19926;-91
2021/12/31 03:47:21;;;;;;;;;;;;;;;20.45;53.81;101698.22;4969984;28;19922;-91
2021/12/31 03:49:47;;;;;;;;;;;;;;;19.30;55.55;101705.63;4969434;28;19922;-93
2021/12/31 03:52:12;;;;;;;;;;;;;;;19.77;55.31;101711.47;4969209;28;20041;-92
2021/12/31 03:54:37;;;;;;;;;;;;;;;20.06;54.57;101697.47;4969865;28;19924;-92
2021/12/31 03:57:03;;;;;;;;;;;;;;;19.54;56.55;101713.13;4971097;28;19918;-92
2021/12/31 03:59:28;;;;;;;;;;;;;;;19.23;57.98;101717.16;4969205;28;19920;-91
2021/12/31 04:01:53;;;;;;;;;;;;;;;19.53;55.95;101721.47;4972405;28;19985;-91
2021/12/31 04:04:18;;;;;;;;;;;;;;;19.58;55.87;101711.00;4970468;28;19918;-92
2021/12/31 04:06:44;;;;;;;;;;;;;;;19.57;55.85;101707.41;4969485;28;20081;-91
2021/12/31 04:09:09;;;;;;;;;;;;;;;18.60;59.01;101722.34;4969151;28;20005;-91
2021/12/31 04:11:34;;;;;;;;;;;;;;;19.42;56.30;101708.50;4969257;28;20376;-91
2021/12/31 04:14:00;;;;;;;;;;;;;;;19.50;55.86;101707.97;4969469;28;19926;-93
2021/12/31 04:16:25;;;;;;;;;;;;;;;19.33;57.04;101703.69;4969415;28;19918;-92
2021/12/31 04:18:51;;;;;;;;;;;;;;;19.30;57.17;101704.78;4970234;28;19918;-90
2021/12/31 04:21:19;;;;;;;;;;;;;;;19.76;55.09;101695.97;4971799;28;19918;-92
2021/12/31 04:23:49;;;;;;;;;;;;;;;19.88;55.37;101698.84;4969825;28;19925;-91
2021/12/31 04:26:15;;;;;;;;;;;;;;;19.54;55.59;101693.03;4969769;28;20022;-91
2021/12/31 04:28:41;;;;;;;;;;;;;;;19.16;56.82;101699.38;4969472;28;19941;-91
2021/12/31 04:31:06;;;;;;;;;;;;;;;19.65;54.68;101693.13;4985407;28;20017;-92
2021/12/31 04:33:31;;;;;;;;;;;;;;;18.66;57.89;101701.84;4969514;28;19918;-92
2021/12/31 04:35:57;;;;;;;;;;;;;;;19.45;55.17;101687.19;4969903;28;19922;-92
2021/12/31 04:38:23;;;;;;;;;;;;;;;18.99;57.30;101684.97;4969275;28;19925;-92
2021/12/31 04:40:48;;;;;;;;;;;;;;;18.67;57.63;101684.44;4969668;28;19918;-92
2021/12/31 04:43:22;;;;;;;;;;;;;;;18.76;57.47;101668.22;4969793;28;20331;-92
2021/12/31 04:45:48;;;;;;;;;;;;;;;18.64;58.25;101669.06;4969640;28;20020;-92
2021/12/31 04:48:13;;;;;;;;;;;;;;;19.02;56.34;101659.19;4969175;28;19977;-91
2021/12/31 04:50:38;;;;;;;;;;;;;;;18.59;57.13;101672.13;4953902;28;19928;-91
2021/12/31 04:53:04;;;;;;;;;;;;;;;18.62;56.95;101651.00;4969010;28;19902;-91
2021/12/31 04:55:30;;;;;;;;;;;;;;;19.16;56.53;101639.91;4968972;28;19921;-91
2021/12/31 04:57:56;;;;;;;;;;;;;;;19.51;54.10;101630.13;4968340;28;20014;-92
2021/12/31 05:00:21;;;;;;;;;;;;;;;18.92;56.46;101637.91;4968659;28;19958;-90
2021/12/31 05:02:46;;;;;;;;;;;;;;;18.90;56.48;101636.25;4968952;28;19999;-90
2021/12/31 05:05:12;;;;;;;;;;;;;;;19.21;55.86;101634.09;4969049;28;20392;-92
2021/12/31 05:07:37;;;;;;;;;;;;;;;19.33;55.12;101638.69;4968624;28;19922;-91
2021/12/31 05:10:03;;;;;;;;;;;;;;;19.78;53.20;101647.34;4969498;28;20431;-91
2021/12/31 05:12:31;;;;;;;;;;;;;;;19.11;55.23;101634.75;4968131;28;19981;-91
2021/12/31 05:14:57;;;;;;;;;;;;;;;19.12;56.04;101638.38;4967596;28;19922;-90
2021/12/31 05:17:22;;;;;;;;;;;;;;;18.40;57.37;101644.22;4969046;28;20446;-91
2021/12/31 05:19:48;;;;;;;;;;;;;;;19.31;55.04;101646.19;4968524;28;20410;-92
2021/12/31 05:22:13;;;;;;;;;;;;;;;19.57;53.87;101651.63;4969800;28;19922;-92
2021/12/31 05:24:41;;;;;;;;;;;;;;;18.99;56.12;101646.56;4969980;28;19922;-91
2021/12/31 05:27:07;;;;;;;;;;;;;;;19.44;54.66;101660.75;4968625;28;19914;-91
2021/12/31 05:29:36;;;;;;;;;;;;;;;19.38;54.06;101661.19;4967988;28;19918;-92
2021/12/31 05:32:01;;;;;;;;;;;;;;;18.71;56.69;101672.28;4967586;28;19925;-91
2021/12/31 05:34:27;;;;;;;;;;;;;;;19.11;55.10;101667.69;4966886;28;19923;-92
2021/12/31 05:36:52;;;;;;;;;;;;;;;18.82;57.11;101655.09;4967397;28;19941;-92
2021/12/31 05:39:17;;;;;;;;;;;;;;;19.05;55.55;101659.88;4966420;28;20320;-91
2021/12/31 05:41:42;;;;;;;;;;;;;;;19.27;54.99;101661.97;4966323;28;19913;-92
2021/12/31 05:44:08;;;;;;;;;;;;;;;19.28;55.32;101666.47;4966575;28;20339;-92
2021/12/31 05:46:34;;;;;;;;;;;;;;;18.65;56.63;101659.88;4966208;28;20060;-92
2021/12/31 05:48:59;;;;;;;;;;;;;;;18.68;56.39;101665.16;4967758;28;19918;-92
2021/12/31 05:51:26;;;;;;;;;;;;;;;18.46;57.65;101664.84;4966761;28;19918;-92
2021/12/31 05:53:51;;;;;;;;;;;;;;;18.71;56.44;101661.31;4970396;28;19918;-93
2021/12/31 05:57:05;;;;;;;;;;;;;;;;;;;;;
2021/12/31 05:59:31;;;;;;;;;;;;;;;19.08;55.51;101667.00;4986350;28;19994;-92
2021/12/31 06:01:56;;;;;;;;;;;;;;;18.42;57.74;101669.69;4967357;28;19925;-89
2021/12/31 06:04:22;;;;;;;;;;;;;;;19.32;54.36;101669.00;4967522;28;19925;-89
2021/12/31 06:06:48;;;;;;;;;;;;;;;18.56;56.99;101666.88;4967311;28;19922;-92
2021/12/31 06:09:13;;;;;;;;;;;;;;;19.87;52.73;101659.53;4968051;28;19902;-92
2021/12/31 06:11:40;;;;;;;;;;;;;;;18.50;56.55;101660.94;4971621;28;19945;-91
2021/12/31 06:14:25;;;;;;;;;;;;;;;18.71;56.61;101648.50;4980172;28;19949;-91
2021/12/31 06:16:51;;;;;;;;;;;;;;;18.67;56.13;101641.44;4977685;28;20433;-93
2021/12/31 06:20:06;;;;;;;;;;;;;;;18.77;55.14;101639.84;4969207;28;19969;-93
2021/12/31 06:22:31;;;;;;;;;;;;;;;18.67;56.69;101638.72;4964818;28;19925;-91
2021/12/31 06:25:00;;;;;;;;;;;;;;;18.89;56.00;101624.44;4965942;28;19926;-92
2021/12/31 06:27:25;;;;;;;;;;;;;;;18.04;58.32;101616.50;4963548;28;19922;-92
2021/12/31 06:29:51;;;;;;;;;;;;;;;18.44;56.93;101610.16;4963561;28;19925;-93
2021/12/31 06:32:16;;;;;;;;;;;;;;;18.49;56.49;101620.81;4964337;28;19941;-92
2021/12/31 06:34:41;;;;;;;;;;;;;;;18.31;57.46;101607.38;4964690;28;20332;-92
2021/12/31 06:37:07;;;;;;;;;;;;;;;17.96;59.08;101607.03;4964716;28;19965;-92
2021/12/31 06:39:34;;;;;;;;;;;;;;;18.10;57.61;101609.75;4966180;28;19918;-91
2021/12/31 06:42:03;;;;;;;;;;;;;;;18.39;56.67;101604.13;4965567;28;19918;-91
2021/12/31 06:44:28;;;;;;;;;;;;;;;17.74;59.25;101618.47;4963617;28;19918;-94
2021/12/31 06:46:54;;;;;;;;;;;;;;;18.47;57.30;101618.19;4964146;28;19957;-95
2021/12/31 06:49:19;;;;;;;;;;;;;;;18.42;57.61;101615.75;4965865;28;19918;-94
2021/12/31 06:51:44;;;;;;;;;;;;;;;18.20;57.30;101629.16;4963502;28;19924;-93
2021/12/31 06:54:09;;;;;;;;;;;;;;;18.96;55.07;101616.63;4963053;28;19918;-90
2021/12/31 06:56:35;;;;;;;;;;;;;;;18.21;57.42;101631.78;4962972;28;20296;-90
2021/12/31 06:59:00;;;;;;;;;;;;;;;17.92;58.07;101627.38;4963900;28;20373;-94
2021/12/31 07:01:25;;;;;;;;;;;;;;;18.56;57.11;101641.34;4967537;28;20356;-94
2021/12/31 07:03:52;;;;;;;;;;;;;;;18.66;55.90;101634.22;4968650;28;19918;-93
2021/12/31 07:06:17;;;;;;;;;;;;;;;19.57;53.66;101643.41;4968352;28;19922;-93
2021/12/31 07:08:42;;;;;;;;;;;;;;;18.65;56.12;101642.56;4968901;28;19918;-95
2021/12/31 07:11:08;;;;;;;;;;;;;;;18.70;55.83;101648.59;4966957;28;19953;-95
2021/12/31 07:13:35;;;;;;;;;;;;;;;17.94;57.81;101659.16;4965720;28;19934;-95
2021/12/31 07:16:00;;;;;;;;;;;;;;;19.12;53.94;101652.94;4965996;28;19914;-96
2021/12/31 07:18:28;;;;;;;;;;;;;;;17.99;57.49;101654.22;4968649;28;19918;-96
2021/12/31 07:20:53;;;;;;;;;;;;;;;18.00;57.44;101652.41;4968236;28;20291;-96
2021/12/31 07:23:22;;;;;;;;;;;;;;;18.16;56.82;101654.97;4966780;28;19918;-94
2021/12/31 07:25:48;;;;;;;;;;;;;;;18.68;55.08;101651.44;4967758;28;19918;-91
2021/12/31 07:28:16;;;;;;;;;;;;;;;18.44;56.24;101658.63;4966597;28;19970;-93
2021/12/31 07:30:42;;;;;;;;;;;;;;;17.78;59.45;101652.88;4966883;28;19925;-93
2021/12/31 07:33:17;;;;;;;;;;;;;;;18.66;56.46;101645.19;4968048;28;19914;-93
2021/12/31 07:35:43;;;;;;;;;;;;;;;18.08;56.72;101644.53;4967677;28;19939;-94
2021/12/31 07:38:17;;;;;;;;;;;;;;;17.54;58.38;101648.00;4972143;28;20046;-92
2021/12/31 07:40:43;;;;;;;;;;;;;;;18.45;56.41;101635.69;4969337;28;19918;-92
2021/12/31 07:43:09;;;;;;;;;;;;;;;18.09;57.42;101634.44;4967290;28;19929;-92
2021/12/31 07:45:34;;;;;;;;;;;;;;;16.99;60.89;101645.06;4967021;28;19922;-90
2021/12/31 07:48:00;;;;;;;;;;;;;;;17.77;58.12;101631.97;4967299;28;20291;-93
2021/12/31 07:50:25;;;;;;;;;;;;;;;17.92;57.37;101633.75;4966404;28;19918;-89
2021/12/31 07:52:51;;;;;;;;;;;;;;;18.49;55.62;101649.06;4964725;28;20369;-91
2021/12/31 07:55:16;;;;;;;;;;;;;;;18.60;55.75;101654.72;4969838;28;20308;-91
2021/12/31 07:57:41;;;;;;;;;;;;;;;18.78;55.71;101663.53;4967192;28;20000;-91
2021/12/31 08:00:07;;;;;;;;;;;;;;;18.78;54.68;101655.31;4967736;28;19925;-88
2021/12/31 08:02:32;;;;;;;;;;;;;;;17.48;59.24;101664.81;4983610;28;19918;-89
2021/12/31 08:04:57;;;;;;;;;;;;;;;18.31;57.72;101648.47;4964685;28;19950;-88
2021/12/31 08:07:26;;;;;;;;;;;;;;;18.67;55.50;101644.19;4963872;28;20288;-92
2021/12/31 08:09:53;;;;;;;;;;;;;;;18.78;55.13;101655.31;4963836;28;20014;-92
2021/12/31 08:12:18;;;;;;;;;;;;;;;18.95;54.40;101667.00;4965168;28;20327;-92
2021/12/31 08:14:44;;;;;;;;;;;;;;;18.92;54.11;101670.81;4965794;28;19919;-89
2021/12/31 08:17:09;;;;;;;;;;;;;;;18.50;55.42;101682.84;4966162;28;20024;-90
2021/12/31 08:19:34;;;;;;;;;;;;;;;19.08;53.86;101670.63;4966324;28;19998;-89
2021/12/31 08:21:59;;;;;;;;;;;;;;;18.86;54.05;101674.00;4965576;28;19925;-91
2021/12/31 08:24:25;;;;;;;;;;;;;;;18.52;57.01;101680.88;4964798;28;19964;-89
2021/12/31 08:26:50;;;;;;;;;;;;;;;18.87;54.41;101670.28;4965805;28;19918;-91
2021/12/31 08:29:15;;;;;;;;;;;;;;;18.26;57.20;101658.88;4966622;28;19965;-93
2021/12/31 08:31:43;;;;;;;;;;;;;;;18.99;54.44;101652.06;4983441;28;19922;-94
2021/12/31 08:34:09;;;;;;;;;;;;;;;18.26;56.01;101655.25;4967235;28;19968;-92
2021/12/31 08:36:46;;;;;;;;;;;;;;;18.25;55.90;101662.56;4964369;28;19919;-92
2021/12/31 08:39:11;;;;;;;;;;;;;;;18.28;57.10;101656.88;4964687;28;19918;-90
2021/12/31 08:41:37;;;;;;;;;;;;;;;18.15;56.74;101654.09;4964207;28;19937;-90
2021/12/31 08:44:03;;;;;;;;;;;;;;;17.98;56.75;101665.28;4963079;28;20028;-91
2021/12/31 08:46:28;;;;;;;;;;;;;;;18.11;57.06;101673.59;4963673;28;20349;-90
2021/12/31 08:48:53;;;;;;;;;;;;;;;18.42;56.02;101673.28;4963497;28;19929;-92
2021/12/31 08:51:19;;;;;;;;;;;;;;;18.13;56.00;101672.50;4963617;28;19922;-92
2021/12/31 08:53:58;;;;;;;;;;;;;;;18.53;56.61;101658.84;4964285;28;19936;-91
2021/12/31 08:56:23;;;;;;;;;;;;;;;19.11;53.76;101651.22;4963469;28;19946;-90
2021/12/31 08:58:49;;;;;;;;;;;;;;;18.41;55.78;101656.94;4964586;28;19918;-88
2021/12/31 09:01:14;;;;;;;;;;;;;;;18.65;55.57;101665.34;4963696;28;20065;-90
2021/12/31 09:03:40;;;;;;;;;;;;;;;18.19;56.44;101657.50;4964409;28;19925;-92
2021/12/31 09:06:06;;;;;;;;;;;;;;;18.78;55.22;101657.16;4965943;28;19918;-91
2021/12/31 09:08:31;;;;;;;;;;;;;;;18.09;57.07;101660.00;4972348;28;19918;-92
2021/12/31 09:10:57;;;;;;;;;;;;;;;18.23;57.01;101664.53;4980871;28;19918;-91
2021/12/31 09:13:22;;;;;;;;;;;;;;;18.55;55.05;101664.22;4978584;28;19918;-92
2021/12/31 09:15:48;;;;;;;;;;;;;;;19.27;52.89;101663.84;4967231;28;19914;-93
2021/12/31 09:18:13;;;;;;;;;;;;;;;18.38;54.90;101682.69;4964866;28;19918;-92
2021/12/31 09:20:38;;;;;;;;;;;;;;;17.87;57.46;101696.97;4963760;28;19941;-93
2021/12/31 09:23:04;;;;;;;;;;;;;;;18.42;56.32;101705.28;4963577;28;19921;-94
2021/12/31 09:25:29;;;;;;;;;;;;;;;18.72;55.54;101715.13;4964723;28;19990;-92
2021/12/31 09:27:58;;;;;;;;;;;;;;;18.72;55.40;101713.28;4965021;28;19918;-93
2021/12/31 09:30:23;;;;;;;;;;;;;;;18.47;55.45;101700.38;4963802;28;20013;-92
2021/12/31 09:32:48;;;;;;;;;;;;;;;18.72;55.51;101707.81;4963669;28;19965;-93
2021/12/31 09:35:14;;;;;;;;;;;;;;;18.23;55.86;101691.94;4962275;28;19922;-92
2021/12/31 09:37:39;;;;;;;;;;;;;;;19.43;53.07;101693.78;4963448;28;19946;-90
2021/12/31 09:40:08;;;;;;;;;;;;;;;18.82;54.71;101699.81;4965478;28;19918;-91
2021/12/31 09:42:33;;;;;;;;;;;;;;;19.40;52.57;101694.91;4964722;28;19917;-93
2021/12/31 09:44:59;;;;;;;;;;;;;;;19.10;53.75;101730.88;4964396;28;20214;-92
2021/12/31 09:47:28;;;;;;;;;;;;;;;18.49;55.78;101734.00;4961531;29;22168;-92
2021/12/31 09:49:54;;;;;;;;;;;;;;;17.47;58.59;101715.94;4960661;29;20377;-91
2021/12/31 09:52:20;;;;;;;;;;;;;;;18.13;57.68;101719.06;4961288;29;19919;-92
2021/12/31 09:54:49;;;;;;;;;;;;;;;18.40;56.90;101704.50;4969456;28;19926;-93
2021/12/31 09:57:15;;;;;;;;;;;;;;;18.11;58.04;101698.22;4963011;28;19929;-91
2021/12/31 09:59:41;;;;;;;;;;;;;;;19.12;55.38;101702.31;4963425;28;19953;-92
2021/12/31 10:02:08;;;;;;;;;;;;;;;18.78;54.68;101690.94;4963867;28;19966;-92
2021/12/31 10:04:57;;;;;;;;;;;;;;;19.50;52.96;101707.97;4964134;28;19902;-92
2021/12/31 10:07:23;;;;;;;;;;;;;;;18.53;56.73;101716.41;4956709;28;19919;-93
2021/12/31 10:10:01;;;;;;;;;;;;;;;18.27;56.39;101734.59;4964258;28;19922;-94
2021/12/31 10:12:45;;;;;;;;;;;;;;;18.86;55.12;101728.81;4976025;28;19913;-93
2021/12/31 10:15:17;;;;;;;;;;;;;;;19.16;53.71;101735.03;4969768;28;19926;-90
2021/12/31 10:17:43;;;;;;;;;;;;;;;18.01;57.11;101742.66;4965620;28;19950;-91
2021/12/31 10:20:08;;;;;;;;;;;;;;;18.16;58.30;101723.44;4964738;28;19926;-92
2021/12/31 10:22:34;;;;;;;;;;;;;;;18.71;55.24;101703.31;4964345;28;20293;-92
2021/12/31 10:25:01;;;;;;;;;;;;;;;18.62;55.60;101684.75;4963483;28;19922;-92
2021/12/31 10:27:28;;;;;;;;;;;;;;;18.08;57.14;101698.44;4963606;28;19933;-90
2021/12/31 10:29:54;;;;;;;;;;;;;;;18.37;56.18;101672.72;4964917;28;19922;-92
2021/12/31 10:32:20;;;;;;;;;;;;;;;18.49;56.13;101640.00;4962779;28;19918;-92
2021/12/31 10:34:46;;;;;;;;;;;;;;;18.46;55.99;101604.56;4968684;28;19954;-92
2021/12/31 10:37:15;;;;;;;;;;;;;;;18.08;57.03;101617.16;4969778;28;20401;-94
2021/12/31 10:39:41;;;;;;;;;;;;;;;18.61;56.50;101609.00;4966288;28;19918;-92
2021/12/31 10:42:06;;;;;;;;;;;;;;;19.58;53.48;101626.81;4966406;28;19938;-92
2021/12/31 10:44:44;;;;;;;;;;;;;;;19.42;54.03;101643.53;4967102;28;19919;-93
2021/12/31 10:47:11;;;;;;;;;;;;;;;18.62;55.70;101651.00;4967334;28;20000;-94
2021/12/31 10:49:55;;;;;;;;;;;;;;;19.12;53.95;101655.69;4967439;28;20391;-92
2021/12/31 10:52:26;;;;;;;;;;;;;;;19.73;52.16;101662.34;4967323;28;20280;-93
2021/12/31 10:55:01;;;;;;;;;;;;;;;20.01;52.24;101655.75;4967094;28;19918;-92
2021/12/31 10:57:36;;;;;;;;;;;;;;;18.79;55.34;101661.66;4967535;28;19937;-92
2021/12/31 11:00:04;;;;;;;;;;;;;;;18.94;53.96;101668.84;4968832;28;20359;-92
2021/12/31 11:02:31;;;;;;;;;;;;;;;20.29;51.28;101687.50;4969518;28;19925;-89
2021/12/31 11:04:56;;;;;;;;;;;;;;;19.39;53.15;101671.19;4969978;28;19931;-89
2021/12/31 11:07:22;;;;;;;;;;;;;;;17.59;58.68;101686.91;4966564;28;19919;-90
2021/12/31 11:09:48;;;;;;;;;;;;;;;18.90;54.50;101669.16;4967715;28;19922;-87
2021/12/31 11:12:14;;;;;;;;;;;;;;;18.87;54.82;101666.63;4967980;28;19918;-89
2021/12/31 11:14:40;;;;;;;;;;;;;;;19.23;53.77;101676.00;4966575;28;20012;-89
2021/12/31 11:17:05;;;;;;;;;;;;;;;18.26;56.22;101678.03;4967596;28;19976;-91
2021/12/31 11:19:30;;;;;;;;;;;;;;;19.64;53.49;101672.13;4968447;28;19922;-90
2021/12/31 11:21:56;;;;;;;;;;;;;;;18.93;54.55;101690.88;4972065;28;19934;-88
2021/12/31 11:24:37;;;;;;;;;;;;;;;19.19;54.83;101686.34;4970140;28;19918;-90
2021/12/31 11:27:21;;;;;;;;;;;;;;;18.82;56.79;101682.50;4968022;28;19914;-89
2021/12/31 11:29:46;;;;;;;;;;;;;;;17.47;60.23;101693.19;4967751;28;19960;-91
2021/12/31 11:32:14;;;;;;;;;;;;;;;19.21;54.93;101678.84;4968278;28;19922;-91
2021/12/31 11:34:40;;;;;;;;;;;;;;;18.67;56.44;101674.34;4968018;28;20048;-92
2021/12/31 11:37:05;;;;;;;;;;;;;;;18.11;57.50;101684.53;4968579;28;19962;-92
2021/12/31 11:39:33;;;;;;;;;;;;;;;18.39;57.87;101687.19;4968257;28;20340;-90
2021/12/31 11:41:59;;;;;;;;;;;;;;;18.54;56.42;101684.38;4969088;28;19949;-89
2021/12/31 11:44:26;;;;;;;;;;;;;;;18.82;55.20;101683.38;4966490;28;19945;-91
2021/12/31 11:47:06;;;;;;;;;;;;;;;18.64;55.70;101681.91;4967813;28;19942;-90
2021/12/31 11:49:31;;;;;;;;;;;;;;;19.70;53.12;101681.81;4967491;28;19918;-91
2021/12/31 11:52:20;;;;;;;;;;;;;;;19.30;52.09;101711.13;4966733;28;19929;-88
2021/12/31 11:54:46;;;;;;;;;;;;;;;18.68;55.41;101692.56;4967501;28;19918;-91
2021/12/31 11:57:15;;;;;;;;;;;;;;;18.43;57.32;101693.34;4967265;28;19923;-91
2021/12/31 11:59:49;;;;;;;;;;;;;;;19.39;53.49;101687.66;4967171;28;19918;-90
2021/12/31 12:02:20;;;;;;;;;;;;;;;17.93;58.39;101682.03;4965384;28;19919;-90
2021/12/31 12:04:45;;;;;;;;;;;;;;;17.96;58.70;101700.97;4983504;28;19996;-87
2021/12/31 12:07:30;;;;;;;;;;;;;;;17.70;59.71;101694.44;4967195;28;20389;-89
2021/12/31 12:10:01;;;;;;;;;;;;;;;18.10;58.00;101674.56;4986904;28;19918;-87
2021/12/31 12:12:31;;;;;;;;;;;;;;;18.29;57.63;101679.69;4977316;28;19922;-89
2021/12/31 12:15:00;;;;;;;;;;;;;;;18.38;57.56;101690.91;4970713;28;20344;-89
2021/12/31 12:17:28;;;;;;;;;;;;;;;18.40;57.94;101697.19;4981953;28;19918;-87
2021/12/31 12:19:56;;;;;;;;;;;;;;;18.42;57.42;101694.34;4964584;28;19933;-87
2021/12/31 12:22:32;;;;;;;;;;;;;;;18.33;56.71;101687.59;4965063;28;19953;-89
2021/12/31 12:25:10;;;;;;;;;;;;;;;19.03;55.71;101694.75;4964377;28;19929;-90
2021/12/31 12:27:35;;;;;;;;;;;;;;;19.24;55.09;101688.75;4964786;28;19929;-89
2021/12/31 12:30:03;;;;;;;;;;;;;;;19.79;53.19;101698.53;4964222;28;19918;-90
2021/12/31 12:32:35;;;;;;;;;;;;;;;19.57;54.16;101692.81;4964660;28;19926;-90
2021/12/31 12:35:16;;;;;;;;;;;;;;;19.10;55.23;101701.56;4963549;28;20330;-91
2021/12/31 12:37:42;;;;;;;;;;;;;;;18.84;56.33;101702.47;4963848;28;19922;-93
2021/12/31 12:40:12;;;;;;;;;;;;;;;18.54;58.20;101715.44;4963108;28;19950;-92
2021/12/31 12:42:43;;;;;;;;;;;;;;;19.26;55.93;101719.69;4964300;28;19941;-92